Time;durP1;ratioP1;P1;durP2;ratioP2;P2;SDS_P1;SDS_P2;PMS_P1;PMS_P2;Temp;Humidity;BMP_temperature;BMP_pressure;BME280_temperature;BME280_humidity;BME280_pressure;Samples;Min_cycle;Max_cycle;Signal;HPM_P1;HPM_P2
2024/03/02 00:00:50;;;;;;;1.70;1.17;;;9.00;99.90;;;;;;4975462;28;20461;-72
2024/03/02 00:03:17;;;;;;;1.73;0.90;;;9.00;99.90;;;;;;4972930;28;20445;-72
2024/03/02 00:05:49;;;;;;;2.70;1.70;;;8.90;99.90;;;;;;4972490;28;20575;-72
2024/03/02 00:08:23;;;;;;;1.80;1.30;;;9.00;99.90;;;;;;4975195;28;20462;-72
2024/03/02 00:10:50;;;;;;;1.20;1.10;;;8.90;99.90;;;;;;4975412;28;20520;-72
2024/03/02 00:13:22;;;;;;;1.70;0.90;;;8.90;99.90;;;;;;4973765;28;20448;-72
2024/03/02 00:15:52;;;;;;;2.33;1.50;;;9.00;99.90;;;;;;4976563;28;20549;-72
2024/03/02 00:18:21;;;;;;;1.50;1.30;;;8.90;99.90;;;;;;4970050;28;21086;-72
2024/03/02 00:20:49;;;;;;;2.13;1.83;;;9.10;99.90;;;;;;4972179;28;20477;-72
2024/03/02 00:23:18;;;;;;;1.33;1.07;;;9.00;99.90;;;;;;4972874;28;20484;-72
2024/03/02 00:25:48;;;;;;;2.47;1.57;;;9.00;99.90;;;;;;4975303;28;20453;-73
2024/03/02 00:28:18;;;;;;;1.50;1.23;;;9.00;99.90;;;;;;4970417;28;20436;-72
2024/03/02 00:30:56;;;;;;;1.97;1.37;;;8.90;99.90;;;;;;4976872;28;20479;-72
2024/03/02 00:33:24;;;;;;;3.00;1.43;;;8.90;99.90;;;;;;4977787;28;21372;-72
2024/03/02 00:35:53;;;;;;;2.17;1.63;;;8.90;99.90;;;;;;4972541;28;20494;-72
2024/03/02 00:38:20;;;;;;;1.30;1.20;;;8.90;99.90;;;;;;4974181;28;21164;-72
2024/03/02 00:40:48;;;;;;;1.20;0.80;;;8.90;99.90;;;;;;4971470;28;20563;-72
2024/03/02 00:43:46;;;;;;;3.30;1.00;;;8.80;99.90;;;;;;4975492;28;20471;-73
2024/03/02 00:46:14;;;;;;;1.30;1.00;;;8.80;99.90;;;;;;4977178;28;20516;-72
2024/03/02 00:48:57;;;;;;;2.03;1.20;;;8.80;99.90;;;;;;4978936;28;21118;-72
2024/03/02 00:51:26;;;;;;;3.27;2.00;;;8.80;99.90;;;;;;4977234;28;20476;-71
2024/03/02 00:53:55;;;;;;;1.40;1.30;;;8.90;99.90;;;;;;4977280;28;20469;-72
2024/03/02 00:56:22;;;;;;;2.03;1.53;;;8.90;99.90;;;;;;4969188;28;20466;-72
2024/03/02 00:58:50;;;;;;;3.00;1.10;;;9.00;99.90;;;;;;4971907;28;20489;-72
2024/03/02 01:01:17;;;;;;;1.40;1.27;;;9.00;99.90;;;;;;4975228;28;20469;-71
2024/03/02 01:03:44;;;;;;;2.20;1.43;;;9.00;99.90;;;;;;4979146;28;20458;-72
2024/03/02 01:06:10;;;;;;;2.33;1.63;;;8.90;99.90;;;;;;4975789;28;20463;-71
2024/03/02 01:08:39;;;;;;;1.10;0.87;;;8.90;99.90;;;;;;4973488;28;20501;-71
2024/03/02 01:11:05;;;;;;;1.30;1.10;;;8.90;99.90;;;;;;4972055;28;20482;-72
2024/03/02 01:13:33;;;;;;;1.30;1.20;;;8.90;99.90;;;;;;4973453;28;20470;-71
2024/03/02 01:15:59;;;;;;;1.90;1.13;;;8.90;99.90;;;;;;4972880;28;20464;-71
2024/03/02 01:18:26;;;;;;;1.97;1.07;;;8.80;99.90;;;;;;4969203;28;20474;-71
2024/03/02 01:20:55;;;;;;;2.00;1.20;;;8.80;99.90;;;;;;4976147;28;20841;-72
2024/03/02 01:23:22;;;;;;;1.27;0.90;;;8.80;99.90;;;;;;4970187;28;20473;-72
2024/03/02 01:25:51;;;;;;;1.40;1.20;;;8.80;99.90;;;;;;4967540;28;20477;-72
2024/03/02 01:28:18;;;;;;;1.10;0.90;;;8.90;99.90;;;;;;4971153;28;20840;-72
2024/03/02 01:30:45;;;;;;;1.47;1.23;;;9.00;99.90;;;;;;4975515;28;20467;-72
2024/03/02 01:33:12;;;;;;;1.10;0.90;;;9.10;99.90;;;;;;4970871;28;20466;-71
2024/03/02 01:35:38;;;;;;;1.47;0.80;;;9.00;99.90;;;;;;4970950;28;20458;-72
2024/03/02 01:38:06;;;;;;;2.07;1.13;;;8.90;99.90;;;;;;4975317;28;20462;-71
2024/03/02 01:40:34;;;;;;;2.90;1.67;;;8.90;99.90;;;;;;4974574;28;20487;-71
2024/03/02 01:43:02;;;;;;;1.70;1.33;;;8.90;99.90;;;;;;4977407;28;20462;-72
2024/03/02 01:45:29;;;;;;;2.90;1.23;;;8.90;99.90;;;;;;4971025;28;20475;-71
2024/03/02 01:47:56;;;;;;;1.57;1.00;;;8.90;99.90;;;;;;4976495;28;21064;-72
2024/03/02 01:50:28;;;;;;;1.50;1.10;;;9.00;99.90;;;;;;4974285;28;20481;-72
2024/03/02 01:52:55;;;;;;;2.07;1.30;;;9.10;99.90;;;;;;4974458;28;20504;-72
2024/03/02 01:55:22;;;;;;;2.17;1.30;;;9.10;99.90;;;;;;4961681;28;20788;-72
2024/03/02 01:57:50;;;;;;;1.50;1.10;;;9.10;99.90;;;;;;4967453;28;20584;-72
2024/03/02 02:00:19;;;;;;;1.30;1.13;;;9.00;99.90;;;;;;4970622;28;20552;-72
2024/03/02 02:02:46;;;;;;;2.17;1.30;;;9.00;99.90;;;;;;4967022;28;20949;-72
2024/03/02 02:05:13;;;;;;;1.63;1.23;;;8.90;99.90;;;;;;4969913;28;20461;-72
2024/03/02 02:07:41;;;;;;;2.77;1.43;;;8.90;99.90;;;;;;4969058;28;20477;-72
2024/03/02 02:10:08;;;;;;;2.07;1.20;;;8.90;99.90;;;;;;4966191;28;20488;-72
2024/03/02 02:12:36;;;;;;;1.80;1.10;;;8.80;99.90;;;;;;4968830;28;20515;-71
2024/03/02 02:15:03;;;;;;;1.40;1.10;;;8.80;99.90;;;;;;4965766;28;20872;-72
2024/03/02 02:17:31;;;;;;;1.40;1.10;;;8.70;99.90;;;;;;4966685;28;20484;-72
2024/03/02 02:19:57;;;;;;;2.13;1.37;;;8.80;99.90;;;;;;4968273;28;20482;-72
2024/03/02 02:22:26;;;;;;;1.20;1.07;;;8.80;99.90;;;;;;4968455;28;20508;-71
2024/03/02 02:24:52;;;;;;;3.60;1.40;;;8.70;99.90;;;;;;4970818;28;20473;-72
2024/03/02 02:27:19;;;;;;;3.67;1.13;;;8.60;99.90;;;;;;4965424;28;21077;-72
2024/03/02 02:29:46;;;;;;;1.90;1.70;;;8.60;99.90;;;;;;4969793;28;20837;-71
2024/03/02 02:32:12;;;;;;;1.73;1.43;;;8.70;99.90;;;;;;4967833;28;20816;-72
2024/03/02 02:34:39;;;;;;;3.27;1.10;;;8.80;99.90;;;;;;4970077;28;21106;-71
2024/03/02 02:37:06;;;;;;;1.27;1.13;;;8.70;99.90;;;;;;4971512;28;20465;-72
2024/03/02 02:39:34;;;;;;;1.17;1.03;;;8.60;99.90;;;;;;4971912;28;20474;-72
2024/03/02 02:42:02;;;;;;;1.30;1.10;;;8.60;99.90;;;;;;4969804;28;20473;-72
2024/03/02 02:44:29;;;;;;;2.47;1.70;;;8.50;99.90;;;;;;4970711;28;21008;-72
2024/03/02 02:46:56;;;;;;;4.20;1.03;;;8.60;99.90;;;;;;4977776;28;20548;-72
2024/03/02 02:49:22;;;;;;;1.40;1.10;;;8.60;99.90;;;;;;4973813;28;20513;-72
2024/03/02 02:51:49;;;;;;;1.30;1.00;;;8.60;99.90;;;;;;4972497;28;21022;-72
2024/03/02 02:54:16;;;;;;;2.20;1.50;;;8.90;99.90;;;;;;4981458;28;20466;-72
2024/03/02 02:56:44;;;;;;;1.50;1.17;;;9.00;99.90;;;;;;4975222;28;21092;-71
2024/03/02 02:59:11;;;;;;;1.27;1.00;;;9.00;99.90;;;;;;4974384;28;20490;-72
2024/03/02 03:01:37;;;;;;;1.30;1.00;;;9.00;99.90;;;;;;4976377;28;20950;-72
2024/03/02 03:04:04;;;;;;;6.70;1.40;;;9.30;99.90;;;;;;4977112;28;20469;-72
2024/03/02 03:06:31;;;;;;;1.50;1.00;;;9.40;99.90;;;;;;4975924;28;20570;-72
2024/03/02 03:08:58;;;;;;;1.93;1.00;;;9.30;99.90;;;;;;4976481;28;20478;-72
2024/03/02 03:11:26;;;;;;;1.10;0.87;;;9.20;99.90;;;;;;4972271;28;20478;-73
2024/03/02 03:13:54;;;;;;;1.73;1.63;;;9.30;99.90;;;;;;4972766;28;20986;-71
2024/03/02 03:16:22;;;;;;;1.50;1.00;;;9.40;99.90;;;;;;4979495;28;20454;-71
2024/03/02 03:18:51;;;;;;;1.20;0.90;;;9.40;99.90;;;;;;4974630;28;20481;-71
2024/03/02 03:21:18;;;;;;;1.10;1.00;;;9.40;99.90;;;;;;4975539;28;20497;-71
2024/03/02 03:23:44;;;;;;;1.40;1.00;;;9.50;99.90;;;;;;4977069;28;20462;-72
2024/03/02 03:26:11;;;;;;;1.00;0.83;;;9.50;99.90;;;;;;4974310;28;20478;-71
2024/03/02 03:28:38;;;;;;;1.00;0.83;;;9.40;99.90;;;;;;4976860;28;21153;-71
2024/03/02 03:31:07;;;;;;;1.50;1.40;;;9.50;99.90;;;;;;4976225;28;20975;-72
2024/03/02 03:33:34;;;;;;;1.47;1.23;;;9.40;99.90;;;;;;4979235;28;20569;-71
2024/03/02 03:36:01;;;;;;;2.27;1.50;;;9.50;99.90;;;;;;4976402;28;20459;-72
2024/03/02 03:38:28;;;;;;;1.60;0.90;;;9.50;99.90;;;;;;4975120;28;20457;-72
2024/03/02 03:40:55;;;;;;;1.00;0.70;;;9.50;99.90;;;;;;4973836;28;20461;-70
2024/03/02 03:43:22;;;;;;;1.77;1.23;;;9.40;99.90;;;;;;4974155;28;20474;-71
2024/03/02 03:45:48;;;;;;;1.30;1.07;;;9.40;99.90;;;;;;4975656;28;20497;-70
2024/03/02 03:48:16;;;;;;;1.53;1.10;;;9.60;99.90;;;;;;4974134;28;20469;-70
2024/03/02 03:50:43;;;;;;;3.47;1.33;;;9.60;99.90;;;;;;4975694;28;20470;-70
2024/03/02 03:53:10;;;;;;;1.30;1.13;;;9.50;99.90;;;;;;4976157;28;20506;-70
2024/03/02 03:55:36;;;;;;;3.83;1.60;;;9.50;99.90;;;;;;4974977;28;20584;-70
2024/03/02 03:58:03;;;;;;;2.90;1.37;;;9.40;99.90;;;;;;4978639;28;21079;-71
2024/03/02 04:00:30;;;;;;;3.73;1.00;;;9.50;99.90;;;;;;4971674;28;20483;-72
2024/03/02 04:02:57;;;;;;;3.13;1.20;;;9.50;99.90;;;;;;4973885;28;20805;-72
2024/03/02 04:05:25;;;;;;;1.30;1.20;;;9.60;99.90;;;;;;4973672;28;20540;-71
2024/03/02 04:07:52;;;;;;;1.53;0.80;;;9.40;99.90;;;;;;4978322;28;20474;-71
2024/03/02 04:10:20;;;;;;;1.20;0.90;;;9.30;99.90;;;;;;4978264;28;20497;-71
2024/03/02 04:12:47;;;;;;;1.23;0.90;;;9.30;99.90;;;;;;4972358;28;21090;-71
2024/03/02 04:15:14;;;;;;;1.50;1.40;;;9.30;99.90;;;;;;4974686;28;20839;-70
2024/03/02 04:17:40;;;;;;;2.60;1.20;;;9.40;99.90;;;;;;4971682;28;20462;-72
2024/03/02 04:20:08;;;;;;;1.63;1.10;;;9.30;99.90;;;;;;4974460;28;20489;-72
2024/03/02 04:22:36;;;;;;;2.03;1.23;;;9.20;99.90;;;;;;4974315;28;20469;-72
2024/03/02 04:25:04;;;;;;;3.97;0.90;;;9.30;99.90;;;;;;4973981;28;20793;-72
2024/03/02 04:27:32;;;;;;;15.13;1.60;;;9.20;99.90;;;;;;4975220;28;20466;-72
2024/03/02 04:29:59;;;;;;;4.20;1.63;;;9.20;99.90;;;;;;4974206;28;20966;-72
2024/03/02 04:32:26;;;;;;;1.77;1.17;;;9.30;99.90;;;;;;4974918;28;20479;-72
2024/03/02 04:34:55;;;;;;;2.20;1.37;;;9.40;99.90;;;;;;4978973;28;20473;-72
2024/03/02 04:37:21;;;;;;;1.63;1.20;;;9.50;99.90;;;;;;4975518;28;20871;-72
2024/03/02 04:39:49;;;;;;;1.63;0.90;;;9.50;99.90;;;;;;4970801;28;20491;-72
2024/03/02 04:42:16;;;;;;;1.77;1.67;;;9.30;99.90;;;;;;4976723;28;20467;-72
2024/03/02 04:44:43;;;;;;;1.20;0.90;;;9.30;99.90;;;;;;4974910;28;20470;-72
2024/03/02 04:47:10;;;;;;;1.77;1.63;;;9.30;99.90;;;;;;4978160;28;20462;-72
2024/03/02 04:49:36;;;;;;;1.10;0.90;;;9.20;99.90;;;;;;4977458;28;22622;-72
2024/03/02 04:52:03;;;;;;;2.07;1.10;;;9.20;99.90;;;;;;4980020;28;20458;-72
2024/03/02 04:54:30;;;;;;;3.50;1.70;;;9.20;99.90;;;;;;4973962;28;21328;-72
2024/03/02 04:56:58;;;;;;;2.03;0.90;;;9.30;99.90;;;;;;4976527;28;20463;-72
2024/03/02 04:59:25;;;;;;;1.00;0.90;;;9.10;99.90;;;;;;4977012;28;20509;-72
2024/03/02 05:01:52;;;;;;;3.37;1.30;;;9.20;99.90;;;;;;4976563;28;21273;-72
2024/03/02 05:04:18;;;;;;;2.00;1.07;;;9.20;99.90;;;;;;4975059;28;20466;-72
2024/03/02 05:06:51;;;;;;;1.73;1.37;;;9.10;99.90;;;;;;4975490;28;20465;-72
2024/03/02 05:09:18;;;;;;;1.37;1.00;;;9.00;99.90;;;;;;4972749;28;20497;-72
2024/03/02 05:12:09;;;;;;;2.33;1.20;;;9.00;99.90;;;;;;4977690;28;20844;-72
2024/03/02 05:14:37;;;;;;;1.10;0.80;;;9.00;99.90;;;;;;4974920;28;20459;-72
2024/03/02 05:17:04;;;;;;;1.23;1.13;;;8.90;99.90;;;;;;4972873;28;20532;-71
2024/03/02 05:19:31;;;;;;;1.87;1.23;;;8.80;99.90;;;;;;4975160;28;21072;-72
2024/03/02 05:21:58;;;;;;;1.67;1.57;;;8.70;99.90;;;;;;4972566;28;20470;-72
2024/03/02 05:24:27;;;;;;;1.20;1.03;;;8.70;99.90;;;;;;4974643;28;20478;-72
2024/03/02 05:26:54;;;;;;;1.90;1.80;;;8.70;99.90;;;;;;4972652;28;20463;-72
2024/03/02 05:29:21;;;;;;;2.60;1.03;;;8.60;99.90;;;;;;4978971;28;20482;-72
2024/03/02 05:31:49;;;;;;;2.23;1.33;;;8.60;99.90;;;;;;4973826;28;20542;-71
2024/03/02 05:34:16;;;;;;;5.23;1.40;;;8.50;99.90;;;;;;4971318;28;23996;-72
2024/03/02 05:36:43;;;;;;;1.93;1.77;;;8.50;99.90;;;;;;4972866;28;20550;-72
2024/03/02 05:39:10;;;;;;;4.70;1.40;;;8.50;99.90;;;;;;4968868;28;20464;-72
2024/03/02 05:41:37;;;;;;;1.57;1.40;;;8.50;99.90;;;;;;4974901;28;20555;-71
2024/03/02 05:44:04;;;;;;;2.23;1.73;;;8.40;99.90;;;;;;4981815;28;20446;-72
2024/03/02 05:46:31;;;;;;;1.30;1.10;;;8.40;99.90;;;;;;4975195;28;20805;-71
2024/03/02 05:49:00;;;;;;;1.50;1.10;;;8.40;99.90;;;;;;4976049;28;21036;-72
2024/03/02 05:51:26;;;;;;;3.30;1.70;;;8.30;99.90;;;;;;4977951;28;20481;-72
2024/03/02 05:53:53;;;;;;;1.00;0.80;;;8.30;99.90;;;;;;4975368;28;20502;-71
2024/03/02 05:56:20;;;;;;;2.67;1.70;;;8.40;99.90;;;;;;4973435;28;21074;-72
2024/03/02 05:58:57;;;;;;;4.60;1.80;;;8.40;99.90;;;;;;4975116;28;20505;-72
2024/03/02 06:01:28;;;;;;;3.37;2.10;;;8.40;99.90;;;;;;4976744;28;20476;-72
2024/03/02 06:03:55;;;;;;;7.30;2.50;;;8.30;99.90;;;;;;4979050;28;20451;-72
2024/03/02 06:06:23;;;;;;;3.77;2.03;;;8.20;99.90;;;;;;4971655;28;20466;-72
2024/03/02 06:08:50;;;;;;;3.50;2.50;;;8.30;99.90;;;;;;4971707;28;20489;-72
2024/03/02 06:11:17;;;;;;;3.20;1.87;;;8.30;99.90;;;;;;4972987;28;20478;-72
2024/03/02 06:13:45;;;;;;;7.73;1.87;;;8.30;99.90;;;;;;4975775;28;20481;-73
2024/03/02 06:16:12;;;;;;;2.40;1.60;;;8.40;99.90;;;;;;4974084;28;20856;-73
2024/03/02 06:18:39;;;;;;;2.43;1.70;;;8.50;99.90;;;;;;4975560;28;20859;-72
2024/03/02 06:21:06;;;;;;;2.20;2.00;;;8.50;99.90;;;;;;4974818;28;20569;-72
2024/03/02 06:23:34;;;;;;;1.10;0.90;;;8.50;99.90;;;;;;4976372;28;20470;-72
2024/03/02 06:26:02;;;;;;;1.80;1.57;;;8.40;99.90;;;;;;4976658;28;20472;-72
2024/03/02 06:28:29;;;;;;;1.50;1.10;;;8.40;99.90;;;;;;4975038;28;20973;-73
2024/03/02 06:30:55;;;;;;;3.30;1.87;;;8.40;99.90;;;;;;4976141;28;20462;-73
2024/03/02 06:33:22;;;;;;;2.00;0.93;;;8.40;99.90;;;;;;4974313;28;20477;-72
2024/03/02 06:35:50;;;;;;;1.87;1.77;;;8.40;99.90;;;;;;4975010;28;20464;-72
2024/03/02 06:38:16;;;;;;;1.57;1.10;;;8.50;99.90;;;;;;4974092;28;20470;-72
2024/03/02 06:40:44;;;;;;;1.93;1.67;;;8.50;99.90;;;;;;4966003;28;20572;-72
2024/03/02 06:43:11;;;;;;;3.80;1.90;;;8.40;99.90;;;;;;4976282;28;20471;-72
2024/03/02 06:45:38;;;;;;;2.17;1.20;;;8.50;99.90;;;;;;4973391;28;20469;-72
2024/03/02 06:48:05;;;;;;;1.50;1.40;;;8.70;99.90;;;;;;4976590;28;20833;-72
2024/03/02 06:50:32;;;;;;;1.67;1.40;;;8.80;99.90;;;;;;4981038;28;20496;-71
2024/03/02 06:52:59;;;;;;;1.80;1.40;;;8.70;99.90;;;;;;4978301;28;20517;-72
2024/03/02 06:55:26;;;;;;;2.30;1.57;;;8.80;99.90;;;;;;4976773;28;20577;-72
2024/03/02 06:57:54;;;;;;;3.03;1.33;;;8.80;99.90;;;;;;4979608;28;20588;-71
2024/03/02 07:00:24;;;;;;;1.70;1.60;;;8.90;99.90;;;;;;4983037;28;20465;-71
2024/03/02 07:02:50;;;;;;;1.60;1.33;;;9.00;99.90;;;;;;4984103;28;20458;-72
2024/03/02 07:05:17;;;;;;;2.17;1.53;;;9.20;99.90;;;;;;4980781;28;20466;-72
2024/03/02 07:07:44;;;;;;;1.83;1.67;;;9.20;99.90;;;;;;4979045;28;20580;-72
2024/03/02 07:10:11;;;;;;;3.47;1.40;;;9.40;99.90;;;;;;4982941;28;20812;-72
2024/03/02 07:12:37;;;;;;;2.13;1.47;;;9.60;99.90;;;;;;4982512;28;20468;-73
2024/03/02 07:15:28;;;;;;;3.50;1.87;;;9.60;99.90;;;;;;4984232;28;20466;-72
2024/03/02 07:17:56;;;;;;;3.60;1.37;;;9.60;99.90;;;;;;4983163;28;20509;-72
2024/03/02 07:20:23;;;;;;;1.77;1.50;;;9.70;99.90;;;;;;4980479;28;20493;-71
2024/03/02 07:22:50;;;;;;;3.13;1.63;;;9.70;99.90;;;;;;4979354;28;20454;-72
2024/03/02 07:25:17;;;;;;;2.70;2.00;;;9.60;99.90;;;;;;4980265;28;20506;-71
2024/03/02 07:27:44;;;;;;;1.83;1.60;;;9.60;99.90;;;;;;4976861;28;20545;-72
2024/03/02 07:30:16;;;;;;;3.80;1.97;;;9.60;99.90;;;;;;4978274;28;20533;-72
2024/03/02 07:32:45;;;;;;;3.57;1.90;;;9.80;99.90;;;;;;4981578;28;20469;-71
2024/03/02 07:35:13;;;;;;;3.33;1.63;;;9.80;99.90;;;;;;4974163;28;20561;-72
2024/03/02 07:37:40;;;;;;;2.80;2.23;;;9.70;99.90;;;;;;4975296;28;20487;-72
2024/03/02 07:40:11;;;;;;;3.50;1.93;;;9.90;99.90;;;;;;4976610;28;20589;-72
2024/03/02 07:42:37;;;;;;;1.60;1.27;;;9.90;99.90;;;;;;4973568;28;20870;-72
2024/03/02 07:45:05;;;;;;;2.50;2.30;;;10.00;99.90;;;;;;4977254;28;20489;-72
2024/03/02 07:47:33;;;;;;;2.00;1.30;;;10.10;99.90;;;;;;4973899;28;20505;-72
2024/03/02 07:50:00;;;;;;;3.33;1.67;;;10.20;99.90;;;;;;4978405;28;20482;-71
2024/03/02 07:52:26;;;;;;;2.90;1.70;;;10.20;99.90;;;;;;4978245;28;20838;-72
2024/03/02 07:54:54;;;;;;;1.63;1.53;;;10.20;99.90;;;;;;4976356;28;20490;-72
2024/03/02 07:57:20;;;;;;;5.20;2.20;;;10.50;99.90;;;;;;4983658;28;21033;-71
2024/03/02 07:59:47;;;;;;;2.87;1.40;;;11.00;99.90;;;;;;4977461;28;20486;-72
2024/03/02 08:02:14;;;;;;;1.97;1.77;;;11.40;99.90;;;;;;4982392;28;20531;-71
2024/03/02 08:04:43;;;;;;;1.80;1.20;;;11.90;99.90;;;;;;4978700;28;20462;-72
2024/03/02 08:07:10;;;;;;;1.60;1.50;;;11.80;99.90;;;;;;4975262;28;20477;-72
2024/03/02 08:09:36;;;;;;;4.70;2.07;;;11.70;99.90;;;;;;4972070;28;20485;-72
2024/03/02 08:12:04;;;;;;;1.43;1.27;;;12.00;99.90;;;;;;4978404;28;20470;-71
2024/03/02 08:14:30;;;;;;;3.07;1.57;;;12.30;99.90;;;;;;4974349;28;20996;-73
2024/03/02 08:16:57;;;;;;;1.97;1.77;;;12.50;99.90;;;;;;4975275;28;20469;-71
2024/03/02 08:19:24;;;;;;;3.20;1.90;;;12.80;99.90;;;;;;4979997;28;20482;-71
2024/03/02 08:21:52;;;;;;;1.67;1.40;;;13.20;99.90;;;;;;4976853;28;20459;-71
2024/03/02 08:24:19;;;;;;;2.93;1.50;;;13.60;99.90;;;;;;4978408;28;20470;-71
2024/03/02 08:26:46;;;;;;;2.47;1.40;;;13.80;99.90;;;;;;4974289;28;21043;-71
2024/03/02 08:29:13;;;;;;;1.67;1.37;;;14.20;99.90;;;;;;4976034;28;20521;-72
2024/03/02 08:31:41;;;;;;;3.63;1.57;;;14.70;99.90;;;;;;4977629;28;20458;-72
2024/03/02 08:34:07;;;;;;;2.57;1.50;;;15.20;99.90;;;;;;4973076;28;20498;-72
2024/03/02 08:36:36;;;;;;;3.47;1.53;;;15.90;99.90;;;;;;4974333;28;20458;-72
2024/03/02 08:39:07;;;;;;;2.33;1.60;;;16.60;99.90;;;;;;4977698;28;20998;-72
2024/03/02 08:41:34;;;;;;;2.20;1.77;;;17.20;99.90;;;;;;4975954;28;20624;-72
2024/03/02 08:44:01;;;;;;;2.63;1.60;;;17.40;99.90;;;;;;4976215;28;20463;-72
2024/03/02 08:46:28;;;;;;;1.70;1.40;;;16.60;99.90;;;;;;4975456;28;20467;-72
2024/03/02 08:48:55;;;;;;;4.03;1.20;;;15.70;99.90;;;;;;4977055;28;20487;-72
2024/03/02 08:51:21;;;;;;;3.10;2.10;;;15.40;99.90;;;;;;4970929;28;20486;-72
2024/03/02 08:53:48;;;;;;;3.83;2.00;;;14.80;99.90;;;;;;4966684;28;21033;-72
2024/03/02 08:56:16;;;;;;;1.80;1.60;;;14.80;99.90;;;;;;4966332;28;20467;-72
2024/03/02 08:58:44;;;;;;;2.80;1.50;;;14.70;99.90;;;;;;4973716;28;20537;-72
2024/03/02 09:01:11;;;;;;;2.73;1.90;;;15.20;99.90;;;;;;4976232;28;21792;-72
2024/03/02 09:03:38;;;;;;;2.07;1.73;;;14.90;99.90;;;;;;4972838;28;20829;-72
2024/03/02 09:06:05;;;;;;;1.60;1.20;;;15.20;99.90;;;;;;4973574;28;20454;-72
2024/03/02 09:08:32;;;;;;;2.17;1.30;;;15.70;99.90;;;;;;4964483;28;20751;-73
2024/03/02 09:10:59;;;;;;;4.13;1.30;;;16.40;99.90;;;;;;4978528;28;20890;-72
2024/03/02 09:13:27;;;;;;;3.50;1.50;;;16.70;99.90;;;;;;4973245;28;20573;-71
2024/03/02 09:15:53;;;;;;;3.53;1.80;;;17.10;99.90;;;;;;4973395;28;20477;-71
2024/03/02 09:18:20;;;;;;;2.03;1.77;;;17.00;99.90;;;;;;4972758;28;20463;-72
2024/03/02 09:20:47;;;;;;;2.47;1.30;;;16.60;99.90;;;;;;4980199;28;20466;-71
2024/03/02 09:23:14;;;;;;;2.07;1.63;;;17.10;99.90;;;;;;4973361;28;20466;-71
2024/03/02 09:25:41;;;;;;;2.93;1.30;;;17.90;99.90;;;;;;4973366;28;20463;-72
2024/03/02 09:28:08;;;;;;;3.57;1.80;;;18.50;99.90;;;;;;4981002;28;20465;-71
2024/03/02 09:30:36;;;;;;;4.23;1.40;;;19.40;99.90;;;;;;4972634;28;20483;-71
2024/03/02 09:33:02;;;;;;;3.90;1.60;;;19.70;99.90;;;;;;4974425;28;24477;-71
2024/03/02 09:35:29;;;;;;;2.63;1.33;;;19.90;98.30;;;;;;4975430;28;20609;-71
2024/03/02 09:37:56;;;;;;;2.60;1.43;;;19.60;98.00;;;;;;4973602;28;20466;-71
2024/03/02 09:40:23;;;;;;;3.47;1.20;;;19.20;97.90;;;;;;4972562;28;20489;-71
2024/03/02 09:42:52;;;;;;;1.63;1.30;;;18.60;97.90;;;;;;4972286;28;20470;-71
2024/03/02 09:45:23;;;;;;;2.00;1.40;;;18.40;98.40;;;;;;4975972;28;20466;-71
2024/03/02 09:47:51;;;;;;;2.47;1.50;;;18.90;98.80;;;;;;4978403;28;20581;-72
2024/03/02 09:50:18;;;;;;;2.70;1.47;;;19.40;98.50;;;;;;4975130;28;20486;-71
2024/03/02 09:52:48;;;;;;;3.63;2.37;;;19.80;97.10;;;;;;4973380;28;20466;-72
2024/03/02 09:55:17;;;;;;;3.10;1.33;;;19.90;97.50;;;;;;4970157;28;20984;-72
2024/03/02 09:57:43;;;;;;;1.83;1.13;;;20.50;95.10;;;;;;4975886;28;20572;-71
2024/03/02 10:00:14;;;;;;;3.87;1.70;;;19.40;95.00;;;;;;4975292;28;20501;-71
2024/03/02 10:02:41;;;;;;;2.50;1.40;;;18.90;96.20;;;;;;4978709;28;20897;-71
2024/03/02 10:05:09;;;;;;;1.90;1.20;;;19.30;95.70;;;;;;4970722;28;20462;-71
2024/03/02 10:07:38;;;;;;;1.60;1.37;;;19.70;94.30;;;;;;4968405;28;20462;-71
2024/03/02 10:10:14;;;;;;;2.17;1.40;;;19.60;94.50;;;;;;4973617;28;20552;-71
2024/03/02 10:12:41;;;;;;;2.23;1.10;;;19.40;94.30;;;;;;4978021;28;20497;-72
2024/03/02 10:15:09;;;;;;;1.20;0.93;;;19.20;94.50;;;;;;4973141;28;20970;-72
2024/03/02 10:17:36;;;;;;;4.00;1.47;;;19.70;95.20;;;;;;4972483;28;20462;-71
2024/03/02 10:20:25;;;;;;;1.80;1.10;;;20.60;93.90;;;;;;4966053;28;20965;-71
2024/03/02 10:22:52;;;;;;;2.40;1.47;;;20.30;93.90;;;;;;4984472;28;20482;-71
2024/03/02 10:25:30;;;;;;;3.87;1.20;;;20.70;93.90;;;;;;4975389;28;20459;-71
2024/03/02 10:27:59;;;;;;;3.27;1.37;;;21.30;92.60;;;;;;4975058;28;20459;-71
2024/03/02 10:30:25;;;;;;;1.60;1.20;;;21.30;92.70;;;;;;4978378;28;20490;-71
2024/03/02 10:32:54;;;;;;;1.60;1.00;;;21.80;91.70;;;;;;4975799;28;20514;-71
2024/03/02 10:35:22;;;;;;;1.40;1.20;;;21.70;91.00;;;;;;4971159;28;20483;-72
2024/03/02 10:37:50;;;;;;;3.10;1.10;;;20.60;91.20;;;;;;4972419;28;20541;-72
2024/03/02 10:40:17;;;;;;;1.50;1.30;;;20.10;91.80;;;;;;4969562;28;20483;-71
2024/03/02 10:42:46;;;;;;;2.23;1.40;;;20.10;91.60;;;;;;4982724;28;20465;-72
2024/03/02 10:45:13;;;;;;;1.83;1.30;;;20.60;92.40;;;;;;4976779;28;20560;-72
2024/03/02 10:47:41;;;;;;;1.40;1.10;;;21.60;91.10;;;;;;4975358;28;20471;-71
2024/03/02 10:50:09;;;;;;;2.60;1.20;;;21.70;90.90;;;;;;4971956;28;20561;-72
2024/03/02 10:52:35;;;;;;;1.63;0.90;;;22.10;90.10;;;;;;4978815;28;20474;-71
2024/03/02 10:55:05;;;;;;;1.87;1.20;;;22.30;89.80;;;;;;4970870;28;20486;-71
2024/03/02 10:57:41;;;;;;;5.27;1.20;;;22.50;88.40;;;;;;4978104;28;20465;-71
2024/03/02 11:00:14;;;;;;;1.30;1.10;;;21.10;88.40;;;;;;4974563;28;20575;-72
2024/03/02 11:02:43;;;;;;;2.23;1.10;;;21.40;89.30;;;;;;4973370;28;20467;-72
2024/03/02 11:05:13;;;;;;;1.23;0.90;;;22.60;88.80;;;;;;4983575;28;20828;-72
2024/03/02 11:07:41;;;;;;;1.73;1.03;;;23.00;85.30;;;;;;4972655;28;20459;-71
2024/03/02 11:10:10;;;;;;;3.90;1.53;;;22.60;85.80;;;;;;4976933;28;20489;-71
2024/03/02 11:12:39;;;;;;;1.80;1.20;;;22.30;85.80;;;;;;4977238;28;20497;-71
2024/03/02 11:15:12;;;;;;;2.03;1.10;;;22.70;85.10;;;;;;4977899;28;20462;-71
2024/03/02 11:17:40;;;;;;;1.63;1.00;;;23.10;86.10;;;;;;4974625;28;20458;-72
2024/03/02 11:20:09;;;;;;;2.47;1.30;;;23.90;81.40;;;;;;4972752;28;20497;-72
2024/03/02 11:22:37;;;;;;;2.77;1.20;;;23.70;80.60;;;;;;4972692;28;20591;-70
2024/03/02 11:25:05;;;;;;;3.73;1.63;;;23.30;80.20;;;;;;4975423;28;20565;-71
2024/03/02 11:28:01;;;;;;;1.53;1.00;;;23.10;80.80;;;;;;4967484;28;20470;-71
2024/03/02 11:30:52;;;;;;;1.30;0.90;;;23.90;79.10;;;;;;4975500;28;20781;-71
2024/03/02 11:33:30;;;;;;;1.33;0.97;;;24.60;77.10;;;;;;4966943;28;20470;-72
2024/03/02 11:35:58;;;;;;;4.20;1.50;;;24.20;74.10;;;;;;4967252;28;20516;-70
2024/03/02 11:38:32;;;;;;;1.33;1.20;;;23.90;77.30;;;;;;4970053;28;20470;-72
2024/03/02 11:41:01;;;;;;;1.57;1.13;;;25.00;75.70;;;;;;4981592;28;20473;-72
2024/03/02 11:43:30;;;;;;;1.80;1.20;;;25.60;73.70;;;;;;4978917;28;20470;-72
2024/03/02 11:46:04;;;;;;;1.50;1.20;;;25.30;73.20;;;;;;4976666;28;20887;-72
2024/03/02 11:48:31;;;;;;;1.40;1.10;;;25.80;70.50;;;;;;4992937;23;20494;-69
2024/03/02 11:51:00;;;;;;;3.37;1.27;;;24.30;68.20;;;;;;4979516;28;20790;-69
2024/03/02 11:53:28;;;;;;;2.60;1.23;;;23.90;69.00;;;;;;4974835;28;20472;-68
2024/03/02 11:55:56;;;;;;;4.53;1.60;;;24.10;70.40;;;;;;4979033;28;20466;-68
2024/03/02 11:58:26;;;;;;;1.40;1.20;;;24.80;70.60;;;;;;4976073;28;21290;-68
2024/03/02 12:00:55;;;;;;;1.70;1.17;;;25.10;67.30;;;;;;4975362;28;20938;-68
2024/03/02 12:03:25;;;;;;;1.30;1.00;;;25.10;69.20;;;;;;4974591;28;20484;-68
2024/03/02 12:05:52;;;;;;;1.30;1.20;;;25.30;69.20;;;;;;4980380;28;20573;-68
2024/03/02 12:08:19;;;;;;;3.17;1.17;;;26.40;67.90;;;;;;4977748;28;20502;-68
2024/03/02 12:10:57;;;;;;;1.40;0.83;;;25.70;67.10;;;;;;4975466;28;20466;-68
2024/03/02 12:13:24;;;;;;;1.30;0.93;;;24.80;66.10;;;;;;4978884;28;20566;-68
2024/03/02 12:15:56;;;;;;;2.07;0.83;;;24.40;67.20;;;;;;4977411;28;20463;-68
2024/03/02 12:18:23;;;;;;;1.80;1.17;;;24.80;66.50;;;;;;4979431;28;20471;-68
2024/03/02 12:20:52;;;;;;;1.40;0.90;;;23.40;66.90;;;;;;4975862;28;20819;-67
2024/03/02 12:23:19;;;;;;;3.83;1.23;;;22.10;69.70;;;;;;4968607;28;20541;-70
2024/03/02 12:25:47;;;;;;;1.77;1.37;;;22.10;71.10;;;;;;4978128;28;21317;-69
2024/03/02 12:28:13;;;;;;;4.07;1.27;;;21.90;72.20;;;;;;4972960;28;20474;-68
2024/03/02 12:30:40;;;;;;;1.67;0.90;;;21.90;73.10;;;;;;4982142;28;20472;-69
2024/03/02 12:33:09;;;;;;;1.30;0.93;;;22.50;73.70;;;;;;4974992;28;20494;-70
2024/03/02 12:35:37;;;;;;;4.03;1.27;;;23.30;73.20;;;;;;4975362;28;21052;-68
2024/03/02 12:38:04;;;;;;;1.30;1.10;;;22.60;71.50;;;;;;4975336;28;20488;-68
2024/03/02 12:40:32;;;;;;;1.67;1.40;;;21.40;73.20;;;;;;4976273;28;20482;-68
2024/03/02 12:42:58;;;;;;;2.27;1.03;;;20.40;75.20;;;;;;4975098;28;20552;-69
2024/03/02 12:45:25;;;;;;;11.00;2.10;;;19.90;77.60;;;;;;4973367;28;20521;-68
2024/03/02 12:47:52;;;;;;;3.60;1.60;;;19.60;79.70;;;;;;4978659;28;20489;-67
2024/03/02 12:50:21;;;;;;;4.23;1.90;;;19.20;80.40;;;;;;4980487;28;20478;-68
2024/03/02 12:52:53;;;;;;;5.60;1.80;;;19.10;81.50;;;;;;4975261;28;20838;-68
2024/03/02 12:55:22;;;;;;;2.13;1.33;;;20.10;82.50;;;;;;4980326;28;20776;-68
2024/03/02 12:57:51;;;;;;;4.33;1.70;;;21.10;81.60;;;;;;4977216;28;20965;-68